Talmage, CA (95481)

4:09 AM PDT on August 28, 2014 (GMT -0700)
Ukiah Municipal | Change Station
CLOSE
Current Station
Airport
Location: Ukiah,
Elevation: 614 ft
Nearby Weather Stations

Elev 614 ft 39.13 °N, 123.20 °W | Updated 13 minutes ago

Clear
Clear
61 °F
Feels Like 61 °F
N
0
Wind Variable Wind from North

Today
High -- | Low -- °F
--% Chance of Precip.
Yesterday
High -- | Low -- °F
Precip. -- in
6:37 AM 7:49 PM
Waxing Crescent, 7% visible
Pressure 30.01 in
Visibility 10.0 miles
Clouds Clear
Dew Point 52 °F
Humidity 72%
Rainfall 0.00 in
Snow Depth Not available.
UV 0 out of 12
Pollen 8.60 out of 12
Air Quality Not available.
Flu Activity Not available.
METAR KUKI 281056Z AUTO 00000KT 10SM CLR 16/11 A3004 RMK AO2 SLP162 T01610111

More Conditions Fewer Conditions

Pressure 30.01 in
Visibility 10.0 miles
Clouds Clear
Dew Point 52 °F
Humidity 72%
Rainfall 0.00 in
Snow Depth Not available.
UV 0 out of 12
Pollen 8.60 out of 12
Air Quality Not available.
Flu Activity Not available.
METAR KUKI 281056Z AUTO 00000KT 10SM CLR 16/11 A3004 RMK AO2 SLP162 T01610111

More Conditions Fewer Conditions

10-Day Weather Forecast

Almanac

Astronomy

Aug. 28, 2014 Rise Set
Actual Time 6:37 AM PDT 7:49 PM PDT
Civil Twilight 6:10 AM PDT 8:16 PM PDT
Nautical Twilight 5:37 AM PDT 8:49 PM PDT
Astronomical Twilight 5:02 AM PDT 9:23 PM PDT
Moon 9:33 AM PDT 9:17 PM PDT
Length of Visible Light 14h 06m
Length of Day
13h 11m
Tomorrow will be 2m 24s shorter.
Waxing Crescent, 7% of the Moon is Illuminated
Today
Waxing Crescent
Sep 2
First Quarter
Sep 8
Full
Sep 15
Last Quarter
Sep 24
New

Today's Extremes

State Highs State Lows

Community

WunderPhotos

Upload Photos

1,747,923 photos uploaded!

Nearby

Snow Depth

Station Depth Elevation
CSS Lab 0 in 6900 ft
Independence Creek 0 in 6500 ft
Tahoe City Cross 0 in 6750 ft
Rubicon #2 0 in 7500 ft
Echo Peak 0 in 7800 ft

Earthquake Activity

City Distance Mag. Time & Date
Napa, California 75 miles 2.6 11:57 AM PDT
2014-08-27
The Geysers, California 28 miles 2.6 7:42 AM PDT
2014-08-27
Napa, California 75 miles 2.5 10:56 AM PDT
2014-08-26
Napa, California 75 miles 3.0 6:45 AM PDT
2014-08-26
Minimum magnitude displayed is 2.5.

Coastal Water Temperatures

Place Temperature
Arena Cove, CA 61.0 °F
North Spit, CA 57.9 °F
Point Reyes, CA 64.9 °F
San Francisco, CA 64.9 °F
Richmond, CA 66.9 °F

Nearby Weather Stations